createdAt,value
2023-01-22T00:01:05.879Z,7.70
2023-01-22T00:03:09.735Z,7.74
2023-01-22T00:05:15.493Z,7.78
2023-01-22T00:07:21.105Z,7.81
2023-01-22T00:09:25.729Z,7.82
2023-01-22T00:11:35.709Z,7.85
2023-01-22T00:13:45.960Z,7.85
2023-01-22T00:19:27.792Z,7.88
2023-01-22T00:21:31.744Z,7.87
2023-01-22T00:23:44.976Z,7.89
2023-01-22T00:25:49.345Z,7.91
2023-01-22T00:28:00.694Z,7.93
2023-01-22T00:30:14.612Z,7.96
2023-01-22T00:32:26.852Z,7.99
2023-01-22T00:34:36.265Z,8.01
2023-01-22T00:36:44.448Z,8.01
2023-01-22T00:38:53.984Z,7.97
2023-01-22T00:41:06.823Z,7.97
2023-01-22T00:43:28.485Z,7.95
2023-01-22T00:45:37.459Z,7.91
2023-01-22T00:47:45.120Z,7.89
2023-01-22T00:50:05.411Z,7.87
2023-01-22T00:52:29.364Z,7.82
2023-01-22T00:54:55.673Z,7.78
2023-01-22T00:57:14.642Z,7.75
2023-01-22T00:59:33.783Z,7.73
2023-01-22T01:01:45.942Z,7.70
2023-01-22T01:04:01.567Z,7.70
2023-01-22T01:06:19.208Z,7.77
2023-01-22T01:08:33.503Z,7.77
2023-01-22T01:10:49.510Z,7.78
2023-01-22T01:12:59.406Z,7.75
2023-01-22T01:15:17.109Z,7.74
2023-01-22T01:17:24.639Z,7.76
2023-01-22T01:19:28.455Z,7.79
2023-01-22T01:21:32.894Z,7.81
2023-01-22T01:23:49.327Z,7.82
2023-01-22T01:26:25.257Z,7.84
2023-01-22T01:28:43.064Z,7.87
2023-01-22T01:30:50.935Z,7.90
2023-01-22T01:33:13.095Z,7.94
2023-01-22T01:35:24.288Z,7.97
2023-01-22T01:37:36.000Z,8.06
2023-01-22T01:39:48.182Z,8.11
2023-01-22T01:41:58.185Z,8.08
2023-01-22T01:44:15.653Z,8.08
2023-01-22T01:46:26.306Z,8.09
2023-01-22T01:48:36.201Z,8.09
2023-01-22T01:51:02.253Z,8.08
2023-01-22T01:53:25.531Z,8.08
2023-01-22T01:55:41.755Z,8.07
2023-01-22T01:57:52.620Z,8.06
2023-01-22T02:00:15.724Z,8.06
2023-01-22T02:02:25.978Z,8.08
2023-01-22T02:04:53.408Z,8.11
2023-01-22T02:07:09.865Z,8.12
2023-01-22T02:09:19.982Z,8.11
2023-01-22T02:11:41.810Z,8.09
2023-01-22T02:14:09.134Z,8.07
2023-01-22T02:16:45.067Z,8.08
2023-01-22T02:19:12.242Z,8.09
2023-01-22T02:21:58.057Z,8.09
2023-01-22T02:24:18.092Z,8.11
2023-01-22T02:26:38.364Z,8.13
2023-01-22T02:28:48.389Z,8.16
2023-01-22T02:30:53.463Z,8.15
2023-01-22T02:32:57.967Z,8.14
2023-01-22T02:35:05.716Z,8.12
2023-01-22T02:37:15.822Z,8.09
2023-01-22T02:39:24.334Z,8.09
2023-01-22T02:41:32.336Z,8.09
2023-01-22T02:43:41.182Z,8.08
2023-01-22T02:45:45.848Z,8.09
2023-01-22T02:47:50.115Z,8.14
2023-01-22T02:49:55.175Z,8.20
2023-01-22T02:51:59.286Z,8.21
2023-01-22T02:54:05.334Z,8.21
2023-01-22T02:56:12.309Z,8.23
2023-01-22T02:58:17.710Z,8.24
2023-01-22T03:00:22.162Z,8.25
2023-01-22T03:02:28.109Z,8.25
2023-01-22T03:04:32.887Z,8.27
2023-01-22T03:06:41.496Z,8.26
2023-01-22T03:08:46.092Z,8.24
2023-01-22T03:10:51.725Z,8.22
2023-01-22T03:13:13.345Z,8.21
2023-01-22T03:15:35.441Z,8.23
2023-01-22T03:17:57.243Z,8.23
2023-01-22T03:20:19.230Z,8.24
2023-01-22T03:22:24.672Z,8.24
2023-01-22T03:24:29.314Z,8.22
2023-01-22T03:26:35.113Z,8.23
2023-01-22T03:28:40.816Z,8.22
2023-01-22T03:30:45.152Z,8.20
2023-01-22T03:32:50.112Z,8.19
2023-01-22T03:34:54.563Z,8.15
2023-01-22T03:37:05.122Z,8.12
2023-01-22T03:39:09.931Z,8.11
2023-01-22T03:41:15.914Z,8.09
2023-01-22T03:43:23.094Z,8.10
2023-01-22T03:45:27.678Z,8.09
2023-01-22T03:47:32.410Z,8.09
2023-01-22T03:49:38.247Z,8.11
2023-01-22T03:51:43.375Z,8.11
2023-01-22T03:53:48.817Z,8.12
2023-01-22T03:56:00.975Z,8.13
2023-01-22T03:58:07.657Z,8.12
2023-01-22T04:00:16.205Z,8.13
2023-01-22T04:02:21.176Z,8.13
2023-01-22T04:04:52.720Z,8.13
2023-01-22T04:06:57.203Z,8.11
2023-01-22T04:09:01.798Z,8.12
2023-01-22T04:11:10.347Z,8.13
2023-01-22T04:13:15.744Z,8.15
2023-01-22T04:15:24.125Z,8.14
2023-01-22T04:17:30.490Z,8.14
2023-01-22T04:19:49.897Z,8.16
2023-01-22T04:22:29.839Z,8.16
2023-01-22T04:24:35.006Z,8.20
2023-01-22T04:26:42.859Z,8.23
2023-01-22T04:28:49.539Z,8.24
2023-01-22T04:30:58.243Z,8.22
2023-01-22T04:33:21.968Z,8.22
2023-01-22T04:35:42.564Z,8.19
2023-01-22T04:37:46.901Z,8.17
2023-01-22T04:39:51.424Z,8.14
2023-01-22T04:41:55.867Z,8.12
2023-01-22T04:44:00.085Z,8.13
2023-01-22T04:46:07.960Z,8.13
2023-01-22T04:48:13.257Z,8.15
2023-01-22T04:50:22.070Z,8.14
2023-01-22T04:52:26.567Z,8.13
2023-01-22T04:54:31.221Z,8.14
2023-01-22T04:56:35.825Z,8.10
2023-01-22T04:58:40.564Z,8.09
2023-01-22T05:00:45.145Z,8.08
2023-01-22T05:02:50.996Z,8.06
2023-01-22T05:04:55.557Z,8.06
2023-01-22T05:07:00.307Z,8.06
2023-01-22T05:09:05.115Z,8.05
2023-01-22T05:11:20.941Z,8.05
2023-01-22T05:13:31.084Z,8.05
2023-01-22T05:15:36.113Z,8.05
2023-01-22T05:17:45.319Z,8.05
2023-01-22T05:19:51.024Z,8.03
2023-01-22T05:21:58.369Z,8.00
2023-01-22T05:24:03.393Z,7.99
2023-01-22T05:26:07.858Z,7.99
2023-01-22T05:28:17.798Z,7.97
2023-01-22T05:30:44.718Z,7.97
2023-01-22T05:33:11.251Z,8.03
2023-01-22T05:35:17.750Z,8.05
2023-01-22T05:37:22.890Z,8.09
2023-01-22T05:39:28.661Z,8.11
2023-01-22T05:41:35.703Z,8.11
2023-01-22T05:43:40.138Z,8.13
2023-01-22T05:45:48.596Z,8.16
2023-01-22T05:48:11.410Z,8.15
2023-01-22T05:50:30.955Z,8.16
2023-01-22T05:52:42.813Z,8.14
2023-01-22T05:54:47.055Z,8.14
2023-01-22T05:56:51.681Z,8.18
2023-01-22T05:58:56.011Z,8.18
2023-01-22T06:01:01.023Z,8.18
2023-01-22T06:03:10.818Z,8.19
2023-01-22T06:05:23.422Z,8.18
2023-01-22T06:07:37.606Z,8.17
2023-01-22T06:09:42.191Z,8.16
2023-01-22T06:11:46.892Z,8.17
2023-01-22T06:13:51.979Z,8.15
2023-01-22T06:16:01.182Z,8.14
2023-01-22T06:18:32.389Z,8.11
2023-01-22T06:20:38.824Z,8.10
2023-01-22T06:22:46.777Z,8.05
2023-01-22T06:24:50.907Z,8.02
2023-01-22T06:26:56.838Z,7.97
2023-01-22T06:29:08.943Z,7.97
2023-01-22T06:31:14.000Z,7.97
2023-01-22T06:33:18.605Z,7.97
2023-01-22T06:35:23.387Z,7.99
2023-01-22T06:37:27.853Z,8.00
2023-01-22T06:39:33.536Z,8.01
2023-01-22T06:41:44.549Z,8.00
2023-01-22T06:43:52.143Z,7.95
2023-01-22T06:45:57.187Z,7.92
2023-01-22T06:48:20.147Z,7.91
2023-01-22T06:50:24.792Z,7.91
2023-01-22T06:52:29.454Z,7.94
2023-01-22T06:54:35.457Z,7.95
2023-01-22T06:56:43.083Z,7.96
2023-01-22T06:58:50.103Z,7.94
2023-01-22T07:00:53.998Z,7.94
2023-01-22T07:02:58.312Z,7.93
2023-01-22T07:05:02.837Z,7.93
2023-01-22T07:07:07.155Z,7.95
2023-01-22T07:09:11.725Z,7.95
2023-01-22T07:11:17.280Z,7.94
2023-01-22T07:13:22.230Z,7.93
2023-01-22T07:15:26.978Z,7.92
2023-01-22T07:17:31.305Z,7.93
2023-01-22T07:19:35.706Z,7.91
2023-01-22T07:21:40.231Z,7.90
2023-01-22T07:23:45.027Z,7.91
2023-01-22T07:25:49.347Z,7.91
2023-01-22T07:28:00.632Z,7.91
2023-01-22T07:30:10.610Z,7.87
2023-01-22T07:32:27.239Z,7.86
2023-01-22T07:34:56.593Z,7.84
2023-01-22T07:37:04.062Z,7.86
2023-01-22T07:45:01.054Z,8.01
2023-01-22T07:48:08.126Z,8.03
2023-01-22T07:50:14.840Z,8.02
2023-01-22T07:52:22.437Z,8.01
2023-01-22T07:54:29.577Z,7.97
2023-01-22T07:56:40.026Z,7.95
2023-01-22T07:58:44.921Z,7.90
2023-01-22T08:00:50.210Z,7.88
2023-01-22T08:02:55.106Z,7.89
2023-01-22T08:04:59.263Z,7.86
2023-01-22T08:07:03.711Z,7.82
2023-01-22T08:09:08.325Z,7.79
2023-01-22T08:11:12.387Z,7.79
2023-01-22T08:13:16.715Z,7.81
2023-01-22T08:15:20.623Z,7.82
2023-01-22T08:17:26.273Z,7.79
2023-01-22T08:19:30.181Z,7.77
2023-01-22T08:21:35.264Z,7.79
2023-01-22T08:23:39.185Z,7.82
2023-01-22T08:25:42.949Z,7.84
2023-01-22T08:27:46.740Z,7.88
2023-01-22T08:29:51.339Z,7.92
2023-01-22T08:31:55.511Z,7.97
2023-01-22T08:34:02.409Z,8.03
2023-01-22T08:36:08.085Z,8.08
2023-01-22T08:38:14.007Z,8.13
2023-01-22T08:40:18.515Z,8.19
2023-01-22T08:42:22.836Z,8.25
2023-01-22T08:44:27.767Z,8.29
2023-01-22T08:46:32.195Z,8.34
2023-01-22T08:48:36.531Z,8.39
2023-01-22T08:50:42.859Z,8.45
2023-01-22T08:52:48.219Z,8.48
2023-01-22T08:54:52.994Z,8.50
2023-01-22T08:56:59.849Z,8.52
2023-01-22T08:59:06.991Z,8.54
2023-01-22T09:01:17.395Z,8.56
2023-01-22T09:03:21.937Z,8.58
2023-01-22T09:05:26.256Z,8.61
2023-01-22T09:07:31.750Z,8.63
2023-01-22T09:09:35.912Z,8.67
2023-01-22T09:11:40.506Z,8.68
2023-01-22T09:13:44.779Z,8.69
2023-01-22T09:15:50.230Z,8.70
2023-01-22T09:17:54.437Z,8.71
2023-01-22T09:19:58.481Z,8.71
2023-01-22T09:22:06.650Z,8.73
2023-01-22T09:24:12.399Z,8.73
2023-01-22T09:26:16.902Z,8.72
2023-01-22T09:28:21.497Z,8.74
2023-01-22T09:30:26.552Z,8.75
2023-01-22T09:32:31.346Z,8.74
2023-01-22T09:34:35.220Z,8.76
2023-01-22T09:36:39.299Z,8.76
2023-01-22T09:38:44.565Z,8.78
2023-01-22T09:40:55.238Z,8.80
2023-01-22T09:43:05.655Z,8.80
2023-01-22T09:45:45.164Z,8.81
2023-01-22T09:47:53.350Z,8.83
2023-01-22T09:50:02.433Z,8.83
2023-01-22T09:52:08.408Z,8.83
2023-01-22T09:54:15.904Z,8.83
2023-01-22T09:56:27.931Z,8.84
2023-01-22T09:58:33.579Z,8.85
2023-01-22T10:00:41.926Z,8.85
2023-01-22T10:02:50.911Z,8.86
2023-01-22T10:05:00.753Z,8.88
2023-01-22T10:07:09.792Z,8.89
2023-01-22T10:09:16.814Z,8.91
2023-01-22T10:11:22.548Z,8.94
2023-01-22T10:13:29.816Z,8.98
2023-01-22T10:15:35.328Z,9.01
2023-01-22T10:17:41.499Z,9.03
2023-01-22T10:19:49.555Z,9.06
2023-01-22T10:22:00.882Z,9.09
2023-01-22T10:24:05.921Z,9.12
2023-01-22T10:26:15.217Z,9.15
2023-01-22T10:28:26.417Z,9.17
2023-01-22T10:30:31.024Z,9.18
2023-01-22T10:32:35.096Z,9.20
2023-01-22T10:34:39.756Z,9.23
2023-01-22T10:36:51.421Z,9.26
2023-01-22T10:39:08.773Z,9.33
2023-01-22T10:41:19.999Z,9.41
2023-01-22T10:43:34.196Z,9.47
2023-01-22T10:45:38.528Z,9.52
2023-01-22T10:47:42.983Z,9.56
2023-01-22T10:49:47.097Z,9.58
2023-01-22T10:51:56.321Z,9.60
2023-01-22T10:54:01.595Z,9.63
2023-01-22T10:56:11.606Z,9.66
2023-01-22T10:58:21.906Z,9.67
2023-01-22T11:00:46.752Z,9.65
2023-01-22T11:02:57.335Z,9.65
2023-01-22T11:05:16.275Z,9.66
2023-01-22T11:07:24.957Z,9.69
2023-01-22T11:09:38.588Z,9.70
2023-01-22T11:11:47.958Z,9.74
2023-01-22T11:13:56.831Z,9.76
2023-01-22T11:16:11.312Z,9.78
2023-01-22T11:18:20.752Z,9.79
2023-01-22T11:20:30.371Z,9.81
2023-01-22T11:22:39.410Z,9.81
2023-01-22T11:24:48.014Z,9.81
2023-01-22T11:27:06.619Z,9.82
2023-01-22T11:29:22.447Z,9.80
2023-01-22T11:31:44.612Z,9.79
2023-01-22T11:34:12.795Z,9.79
2023-01-22T11:36:23.725Z,9.80
2023-01-22T11:38:40.419Z,9.79
2023-01-22T11:41:03.712Z,9.80
2023-01-22T11:43:24.475Z,9.82
2023-01-22T11:45:48.282Z,9.82
2023-01-22T11:48:15.557Z,9.82
2023-01-22T11:50:28.812Z,9.82
2023-01-22T11:52:45.229Z,9.83
2023-01-22T11:55:03.790Z,9.85
2023-01-22T11:57:18.850Z,9.83
2023-01-22T11:59:34.136Z,9.86
2023-01-22T12:02:00.167Z,9.87
2023-01-22T12:04:29.568Z,9.86
2023-01-22T12:06:57.678Z,9.87
2023-01-22T12:09:12.039Z,9.87
2023-01-22T12:11:31.522Z,9.88
2023-01-22T12:13:54.166Z,9.89
2023-01-22T12:16:05.636Z,9.91
2023-01-22T12:18:42.062Z,9.91
2023-01-22T12:21:05.890Z,9.92
2023-01-22T12:23:16.021Z,9.94
2023-01-22T12:25:26.510Z,9.94
2023-01-22T12:27:36.952Z,9.94
2023-01-22T12:29:44.790Z,9.94
2023-01-22T12:31:52.849Z,9.95
2023-01-22T12:33:59.921Z,9.95
2023-01-22T12:36:08.509Z,9.97
2023-01-22T12:38:22.154Z,9.96
2023-01-22T12:40:41.307Z,9.97
2023-01-22T12:42:52.312Z,9.96
2023-01-22T12:45:07.329Z,9.98
2023-01-22T12:47:21.277Z,9.99
2023-01-22T12:49:27.371Z,10.01
2023-01-22T12:51:40.588Z,10.03
2023-01-22T12:53:44.597Z,10.05
2023-01-22T12:56:00.101Z,10.07
2023-01-22T12:58:04.950Z,10.09
2023-01-22T13:00:26.009Z,10.11
2023-01-22T13:02:39.538Z,10.15
2023-01-22T13:04:43.697Z,10.21
2023-01-22T13:06:49.611Z,10.21
2023-01-22T13:08:53.970Z,10.23
2023-01-22T13:11:00.175Z,10.23
2023-01-22T13:13:07.304Z,10.25
2023-01-22T13:15:21.103Z,10.24
2023-01-22T13:17:30.653Z,10.25
2023-01-22T13:19:42.624Z,10.27
2023-01-22T13:21:50.360Z,10.30
2023-01-22T13:24:00.323Z,10.32
2023-01-22T13:26:06.867Z,10.33
2023-01-22T13:28:17.501Z,10.30
2023-01-22T13:30:27.261Z,10.31
2023-01-22T13:32:31.779Z,10.31
2023-01-22T13:34:36.429Z,10.30
2023-01-22T13:36:47.499Z,10.30
2023-01-22T13:38:58.135Z,10.31
2023-01-22T13:41:09.016Z,10.33
2023-01-22T13:43:19.658Z,10.33
2023-01-22T13:45:27.902Z,10.36
2023-01-22T13:47:36.618Z,10.38
2023-01-22T13:49:44.915Z,10.38
2023-01-22T13:51:49.952Z,10.37
2023-01-22T13:53:57.022Z,10.39
2023-01-22T13:56:02.022Z,10.37
2023-01-22T13:58:07.800Z,10.37
2023-01-22T14:00:25.734Z,10.35
2023-01-22T14:02:32.866Z,10.35
2023-01-22T14:04:38.609Z,10.33
2023-01-22T14:06:48.903Z,10.31
2023-01-22T14:08:56.924Z,10.30
2023-01-22T14:11:02.618Z,10.29
2023-01-22T14:13:09.776Z,10.30
2023-01-22T14:15:19.416Z,10.30
2023-01-22T14:17:26.191Z,10.29
2023-01-22T14:19:30.700Z,10.30
2023-01-22T14:21:36.092Z,10.30
2023-01-22T14:23:42.123Z,10.32
2023-01-22T14:25:50.420Z,10.32
2023-01-22T14:27:55.435Z,10.34
2023-01-22T14:30:00.313Z,10.35
2023-01-22T14:32:04.082Z,10.35
2023-01-22T14:34:08.411Z,10.37
2023-01-22T14:36:12.360Z,10.37
2023-01-22T14:38:16.590Z,10.38
2023-01-22T14:40:22.296Z,10.38
2023-01-22T14:42:29.088Z,10.38
2023-01-22T14:44:32.993Z,10.38
2023-01-22T14:46:38.395Z,10.37
2023-01-22T14:48:42.823Z,10.36
2023-01-22T14:50:47.230Z,10.36
2023-01-22T14:52:52.801Z,10.35
2023-01-22T14:54:57.622Z,10.36
2023-01-22T14:57:03.701Z,10.34
2023-01-22T14:59:09.346Z,10.35
2023-01-22T15:01:19.001Z,10.35
2023-01-22T15:03:24.298Z,10.34
2023-01-22T15:05:28.405Z,10.31
2023-01-22T15:07:34.035Z,10.32
2023-01-22T15:09:38.427Z,10.31
2023-01-22T15:11:42.714Z,10.30
2023-01-22T15:13:47.116Z,10.29
2023-01-22T15:15:52.536Z,10.28
2023-01-22T15:17:58.160Z,10.25
2023-01-22T15:20:02.891Z,10.25
2023-01-22T15:22:07.071Z,10.24
2023-01-22T15:24:11.860Z,10.23
2023-01-22T15:26:27.216Z,10.23
2023-01-22T15:28:32.065Z,10.23
2023-01-22T15:30:36.497Z,10.23
2023-01-22T15:32:42.250Z,10.22
2023-01-22T15:34:46.585Z,10.21
2023-01-22T15:36:51.184Z,10.21
2023-01-22T15:38:55.241Z,10.21
2023-01-22T15:41:07.744Z,10.21
2023-01-22T15:43:12.365Z,10.20
2023-01-22T15:45:34.188Z,10.20
2023-01-22T15:47:39.162Z,10.21
2023-01-22T15:49:44.679Z,10.20
2023-01-22T15:51:49.115Z,10.19
2023-01-22T15:53:55.305Z,10.18
2023-01-22T15:55:59.348Z,10.17
2023-01-22T15:58:03.378Z,10.16
2023-01-22T16:00:11.354Z,10.17
2023-01-22T16:02:19.824Z,10.16
2023-01-22T16:04:25.816Z,10.15
2023-01-22T16:06:34.466Z,10.15
2023-01-22T16:08:39.981Z,10.15
2023-01-22T16:10:44.502Z,10.15
2023-01-22T16:12:48.833Z,10.15
2023-01-22T16:14:53.933Z,10.16
2023-01-22T16:16:59.374Z,10.16
2023-01-22T16:19:07.231Z,10.15
2023-01-22T16:21:12.944Z,10.14
2023-01-22T16:23:19.179Z,10.13
2023-01-22T16:25:24.415Z,10.13
2023-01-22T16:27:28.623Z,10.12
2023-01-22T16:29:33.186Z,10.12
2023-01-22T16:31:38.857Z,10.09
2023-01-22T16:33:46.745Z,10.09
2023-01-22T16:35:51.549Z,10.07
2023-01-22T16:37:56.078Z,10.08
2023-01-22T16:40:03.086Z,10.06
2023-01-22T16:42:08.768Z,10.05
2023-01-22T16:44:16.448Z,10.04
2023-01-22T16:46:23.794Z,10.03
2023-01-22T16:48:28.436Z,10.02
2023-01-22T16:50:32.989Z,10.04
2023-01-22T16:52:37.367Z,10.02
2023-01-22T16:54:43.183Z,10.01
2023-01-22T16:56:49.800Z,9.99
2023-01-22T16:58:54.346Z,10.01
2023-01-22T17:00:59.099Z,10.01
2023-01-22T17:03:03.520Z,9.99
2023-01-22T17:05:13.257Z,10.00
2023-01-22T17:07:32.240Z,10.00
2023-01-22T17:09:37.417Z,10.01
2023-01-22T17:11:43.864Z,9.99
2023-01-22T17:14:31.137Z,9.98
2023-01-22T17:16:36.196Z,9.99
2023-01-22T17:18:40.573Z,9.98
2023-01-22T17:21:01.188Z,9.97
2023-01-22T17:23:06.597Z,9.96
2023-01-22T17:25:11.464Z,9.97
2023-01-22T17:27:18.879Z,9.97
2023-01-22T17:29:25.499Z,9.98
2023-01-22T17:31:31.642Z,9.98
2023-01-22T17:33:35.900Z,9.98
2023-01-22T17:35:40.883Z,9.96
2023-01-22T17:37:45.976Z,9.98
2023-01-22T17:39:52.936Z,9.97
2023-01-22T17:41:59.235Z,9.98
2023-01-22T17:44:03.964Z,9.97
2023-01-22T17:46:15.422Z,9.96
2023-01-22T17:48:21.225Z,9.95
2023-01-22T17:50:26.279Z,9.95
2023-01-22T17:52:31.511Z,9.94
2023-01-22T17:54:35.096Z,9.95
2023-01-22T17:56:46.079Z,9.93
2023-01-22T17:58:53.157Z,9.87
2023-01-22T18:01:03.161Z,9.74
2023-01-22T18:03:09.667Z,9.64
2023-01-22T18:05:24.612Z,9.59
2023-01-22T18:07:35.936Z,9.51
2023-01-22T18:09:46.056Z,9.42
2023-01-22T18:12:01.480Z,9.34
2023-01-22T18:14:08.234Z,9.29
2023-01-22T18:16:19.243Z,9.26
2023-01-22T18:18:25.197Z,9.25
2023-01-22T18:20:40.252Z,9.23
2023-01-22T18:22:52.209Z,9.21
2023-01-22T18:25:02.471Z,9.14
2023-01-22T18:27:09.125Z,9.11
2023-01-22T18:29:16.971Z,9.12
2023-01-22T18:31:25.839Z,9.12
2023-01-22T18:33:34.609Z,9.08
2023-01-22T18:35:43.747Z,9.07
2023-01-22T18:37:47.862Z,9.05
2023-01-22T18:39:54.089Z,9.04
2023-01-22T18:42:00.887Z,9.05
2023-01-22T18:44:14.252Z,9.05
2023-01-22T18:46:22.229Z,9.03
2023-01-22T18:48:26.170Z,9.00
2023-01-22T18:50:47.262Z,9.00
2023-01-22T18:52:53.120Z,9.01
2023-01-22T18:54:57.769Z,9.02
2023-01-22T18:57:04.547Z,9.04
2023-01-22T18:59:09.595Z,9.05
2023-01-22T19:01:17.674Z,9.05
2023-01-22T19:03:25.553Z,9.07
2023-01-22T19:05:31.347Z,9.04
2023-01-22T19:07:39.284Z,9.04
2023-01-22T19:09:43.616Z,9.05
2023-01-22T19:11:53.599Z,9.05
2023-01-22T19:14:00.712Z,9.06
2023-01-22T19:16:11.609Z,9.07
2023-01-22T19:18:18.243Z,9.07
2023-01-22T19:20:24.566Z,9.06
2023-01-22T19:22:30.947Z,9.07
2023-01-22T19:24:39.925Z,9.04
2023-01-22T19:26:46.601Z,9.01
2023-01-22T19:28:55.545Z,9.00
2023-01-22T19:31:01.294Z,8.98
2023-01-22T19:33:06.965Z,8.95
2023-01-22T19:35:12.571Z,8.94
2023-01-22T19:37:16.459Z,8.94
2023-01-22T19:39:23.171Z,8.93
2023-01-22T19:41:30.863Z,8.89
2023-01-22T19:43:36.179Z,8.87
2023-01-22T19:45:41.744Z,8.85
2023-01-22T19:47:47.237Z,8.84
2023-01-22T19:50:11.298Z,8.81
2023-01-22T19:52:17.115Z,8.75
2023-01-22T19:54:23.069Z,8.73
2023-01-22T19:56:33.630Z,8.72
2023-01-22T19:58:40.643Z,8.75
2023-01-22T20:00:46.565Z,8.84
2023-01-22T20:02:56.508Z,8.92
2023-01-22T20:05:07.234Z,9.00
2023-01-22T20:07:12.664Z,9.07
2023-01-22T20:09:19.971Z,9.10
2023-01-22T20:11:26.402Z,9.10
2023-01-22T20:13:32.400Z,9.06
2023-01-22T20:15:42.564Z,9.03
2023-01-22T20:17:50.673Z,9.02
2023-01-22T20:19:55.004Z,9.00
2023-01-22T20:22:03.129Z,8.97
2023-01-22T20:24:11.605Z,8.98
2023-01-22T20:26:19.356Z,8.98
2023-01-22T20:28:24.549Z,9.01
2023-01-22T20:30:32.378Z,9.01
2023-01-22T20:32:36.109Z,9.02
2023-01-22T20:34:49.483Z,9.04
2023-01-22T20:36:57.218Z,9.03
2023-01-22T20:39:02.800Z,9.01
2023-01-22T20:41:09.660Z,9.00
2023-01-22T20:43:21.030Z,8.98
2023-01-22T20:45:28.365Z,9.00
2023-01-22T20:47:37.017Z,9.00
2023-01-22T20:49:42.829Z,9.03
2023-01-22T20:51:46.648Z,9.04
2023-01-22T20:53:52.621Z,9.05
2023-01-22T20:56:02.372Z,9.04
2023-01-22T20:58:08.915Z,9.02
2023-01-22T21:00:18.010Z,9.01
2023-01-22T21:02:26.107Z,9.01
2023-01-22T21:04:34.324Z,9.01
2023-01-22T21:06:41.523Z,9.02
2023-01-22T21:08:50.053Z,8.99
2023-01-22T21:11:01.711Z,8.94
2023-01-22T21:13:08.173Z,8.92
2023-01-22T21:15:16.897Z,8.92
2023-01-22T21:17:22.889Z,8.91
2023-01-22T21:19:27.696Z,8.92
2023-01-22T21:21:40.807Z,8.88
2023-01-22T21:23:47.743Z,8.87
2023-01-22T21:25:52.421Z,8.87
2023-01-22T21:27:57.911Z,8.86
2023-01-22T21:30:03.136Z,8.87
2023-01-22T21:32:09.807Z,8.89
2023-01-22T21:34:14.319Z,8.92
2023-01-22T21:36:18.657Z,8.95
2023-01-22T21:38:24.563Z,8.98
2023-01-22T21:40:28.822Z,9.02
2023-01-22T21:42:50.775Z,9.04
2023-01-22T21:45:13.916Z,9.04
2023-01-22T21:47:22.619Z,9.04
2023-01-22T21:49:27.500Z,9.05
2023-01-22T21:51:32.961Z,9.05
2023-01-22T21:53:41.008Z,9.05
2023-01-22T21:55:54.503Z,9.05
2023-01-22T21:58:01.632Z,9.05
2023-01-22T22:00:11.313Z,9.06
2023-01-22T22:02:23.589Z,9.06
2023-01-22T22:04:33.230Z,9.06
2023-01-22T22:06:40.715Z,9.05
2023-01-22T22:08:46.899Z,9.04
2023-01-22T22:10:51.312Z,9.04
2023-01-22T22:12:55.989Z,9.05
2023-01-22T22:14:59.965Z,9.07
2023-01-22T22:17:04.862Z,9.10
2023-01-22T22:19:10.734Z,9.11
2023-01-22T22:21:15.337Z,9.12
2023-01-22T22:23:19.623Z,9.13
2023-01-22T22:25:25.098Z,9.17
2023-01-22T22:27:29.261Z,9.20
2023-01-22T22:29:35.889Z,9.20
2023-01-22T22:31:43.432Z,9.22
2023-01-22T22:33:49.790Z,9.23
2023-01-22T22:35:55.143Z,9.26
2023-01-22T22:38:00.317Z,9.28
2023-01-22T22:40:06.606Z,9.31
2023-01-22T22:42:13.875Z,9.33
2023-01-22T22:44:18.240Z,9.32
2023-01-22T22:46:25.268Z,9.30
2023-01-22T22:48:29.622Z,9.28
2023-01-22T22:50:40.460Z,9.28
2023-01-22T22:52:45.073Z,9.29
2023-01-22T22:54:50.192Z,9.29
2023-01-22T22:56:55.776Z,9.28
2023-01-22T22:59:03.393Z,9.29
2023-01-22T23:01:11.438Z,9.29
2023-01-22T23:03:17.343Z,9.27
2023-01-22T23:05:22.931Z,9.24
2023-01-22T23:07:30.580Z,9.24
2023-01-22T23:09:36.121Z,9.23
2023-01-22T23:11:41.829Z,9.22
2023-01-22T23:13:51.021Z,9.21
2023-01-22T23:16:01.755Z,9.21
2023-01-22T23:18:06.547Z,9.21
2023-01-22T23:20:12.965Z,9.21
2023-01-22T23:22:17.675Z,9.19
2023-01-22T23:24:21.743Z,9.18
2023-01-22T23:26:33.575Z,9.12
2023-01-22T23:28:40.653Z,9.11
2023-01-22T23:30:45.862Z,9.08
2023-01-22T23:32:51.858Z,9.07
2023-01-22T23:34:55.854Z,9.06
2023-01-22T23:37:02.673Z,9.02
2023-01-22T23:39:06.945Z,9.01
2023-01-22T23:41:12.967Z,9.01
2023-01-22T23:43:20.151Z,9.00
2023-01-22T23:45:24.905Z,8.93
2023-01-22T23:47:31.230Z,8.89
2023-01-22T23:49:36.819Z,8.88
2023-01-22T23:51:42.542Z,8.86
2023-01-22T23:53:51.933Z,8.83
2023-01-22T23:56:02.100Z,8.81
2023-01-22T23:58:07.177Z,8.81
